<?xml version="1.0" encoding="UTF-8" standalone="no" ?>
<gpx xmlns="http://www.topografix.com/GPX/1/1" xmlns:xsi="http://www.w3.org/2001/XMLSchema-instance" xsi:schemaLocation="http://www.topografix.com/GPX/1/1 http://www.topografix.com/GPX/1/1/gpx.xsd" version="1.1" creator="VisuGPX - https://www.visugpx.com">
  <metadata>
    <name>[Belledonne] Refuge Oule - Refuge combe Madame</name>
  </metadata>
  <trk>
    <name><![CDATA[[Belledonne] Refuge Oule - Refuge combe Madame_1]]></name>
    <trkseg>
      <trkpt lat="45.31375" lon="6.13381">
        <ele>1769</ele>
        <time>2021-08-30T14:34:07Z</time>
      </trkpt>
      <trkpt lat="45.31309" lon="6.1348">
        <ele>1841</ele>
        <time>2021-08-30T14:36:15Z</time>
      </trkpt>
      <trkpt lat="45.31181" lon="6.13634">
        <ele>1960</ele>
        <time>2021-08-30T14:39:59Z</time>
      </trkpt>
      <trkpt lat="45.31104" lon="6.13723">
        <ele>2010</ele>
        <time>2021-08-30T14:42:11Z</time>
      </trkpt>
      <trkpt lat="45.31003" lon="6.14062">
        <ele>2100</ele>
        <time>2021-08-30T14:47:57Z</time>
      </trkpt>
      <trkpt lat="45.30876" lon="6.14401">
        <ele>2197</ele>
        <time>2021-08-30T14:53:57Z</time>
      </trkpt>
      <trkpt lat="45.30723" lon="6.14699">
        <ele>2359</ele>
        <time>2021-08-30T14:59:44Z</time>
      </trkpt>
      <trkpt lat="45.30597" lon="6.14767">
        <ele>2409</ele>
        <time>2021-08-30T15:02:43Z</time>
      </trkpt>
      <trkpt lat="45.30466" lon="6.1479">
        <ele>2460</ele>
        <time>2021-08-30T15:05:40Z</time>
      </trkpt>
      <trkpt lat="45.3034" lon="6.14769">
        <ele>2522</ele>
        <time>2021-08-30T15:08:29Z</time>
      </trkpt>
      <trkpt lat="45.3024" lon="6.1472">
        <ele>2578</ele>
        <time>2021-08-30T15:10:50Z</time>
      </trkpt>
      <trkpt lat="45.30029" lon="6.14574">
        <ele>2626</ele>
        <time>2021-08-30T15:16:03Z</time>
      </trkpt>
      <trkpt lat="45.2993" lon="6.1456">
        <ele>2656</ele>
        <time>2021-08-30T15:18:16Z</time>
      </trkpt>
      <trkpt lat="45.29869" lon="6.1455">
        <ele>2651</ele>
        <time>2021-08-30T15:19:38Z</time>
      </trkpt>
      <trkpt lat="45.29796" lon="6.14451">
        <ele>2676</ele>
        <time>2021-08-30T15:21:53Z</time>
      </trkpt>
      <trkpt lat="45.29754" lon="6.1431">
        <ele>2734</ele>
        <time>2021-08-30T15:24:16Z</time>
      </trkpt>
      <trkpt lat="45.29716" lon="6.14255">
        <ele>2751</ele>
        <time>2021-08-30T15:25:29Z</time>
      </trkpt>
      <trkpt lat="45.29643" lon="6.14151">
        <ele>2713</ele>
        <time>2021-08-30T15:27:47Z</time>
      </trkpt>
      <trkpt lat="45.29584" lon="6.14026">
        <ele>2666</ele>
        <time>2021-08-30T15:30:08Z</time>
      </trkpt>
      <trkpt lat="45.2951" lon="6.13966">
        <ele>2645</ele>
        <time>2021-08-30T15:32:02Z</time>
      </trkpt>
      <trkpt lat="45.29448" lon="6.1385">
        <ele>2617</ele>
        <time>2021-08-30T15:34:18Z</time>
      </trkpt>
      <trkpt lat="45.29413" lon="6.13668">
        <ele>2538</ele>
        <time>2021-08-30T15:37:15Z</time>
      </trkpt>
      <trkpt lat="45.29375" lon="6.13517">
        <ele>2499</ele>
        <time>2021-08-30T15:39:46Z</time>
      </trkpt>
      <trkpt lat="45.29271" lon="6.13292">
        <ele>2462</ele>
        <time>2021-08-30T15:43:59Z</time>
      </trkpt>
      <trkpt lat="45.29226" lon="6.13244">
        <ele>2470</ele>
        <time>2021-08-30T15:45:14Z</time>
      </trkpt>
      <trkpt lat="45.29215" lon="6.13176">
        <ele>2469</ele>
        <time>2021-08-30T15:46:19Z</time>
      </trkpt>
      <trkpt lat="45.2921" lon="6.12987">
        <ele>2417</ele>
        <time>2021-08-30T15:49:17Z</time>
      </trkpt>
      <trkpt lat="45.29154" lon="6.12794">
        <ele>2339</ele>
        <time>2021-08-30T15:52:33Z</time>
      </trkpt>
      <trkpt lat="45.29091" lon="6.12565">
        <ele>2289</ele>
        <time>2021-08-30T15:56:24Z</time>
      </trkpt>
      <trkpt lat="45.29039" lon="6.12298">
        <ele>2274</ele>
        <time>2021-08-30T16:00:44Z</time>
      </trkpt>
      <trkpt lat="45.28919" lon="6.12065">
        <ele>2174</ele>
        <time>2021-08-30T16:09:31Z</time>
      </trkpt>
      <trkpt lat="45.28856" lon="6.12033">
        <ele>2162.1</ele>
        <time>2021-08-30T15:38:05Z</time>
      </trkpt>
      <trkpt lat="45.28798" lon="6.123">
        <ele>2268</ele>
        <time>2021-08-30T15:46:30Z</time>
      </trkpt>
      <trkpt lat="45.28729" lon="6.12285">
        <ele>2267</ele>
        <time>2021-08-30T15:48:03Z</time>
      </trkpt>
      <trkpt lat="45.28665" lon="6.12273">
        <ele>2263</ele>
        <time>2021-08-30T15:49:30Z</time>
      </trkpt>
      <trkpt lat="45.28578" lon="6.12303">
        <ele>2282</ele>
        <time>2021-08-30T15:51:29Z</time>
      </trkpt>
      <trkpt lat="45.28524" lon="6.12511">
        <ele>2340</ele>
        <time>2021-08-30T15:54:57Z</time>
      </trkpt>
      <trkpt lat="45.28488" lon="6.1259">
        <ele>2366</ele>
        <time>2021-08-30T15:56:26Z</time>
      </trkpt>
      <trkpt lat="45.28433" lon="6.12626">
        <ele>2403</ele>
        <time>2021-08-30T15:57:46Z</time>
      </trkpt>
      <trkpt lat="45.28375" lon="6.12629">
        <ele>2413</ele>
        <time>2021-08-30T15:59:04Z</time>
      </trkpt>
      <trkpt lat="45.28264" lon="6.12577">
        <ele>2407</ele>
        <time>2021-08-30T16:01:40Z</time>
      </trkpt>
      <trkpt lat="45.28165" lon="6.12538">
        <ele>2428</ele>
        <time>2021-08-30T16:03:57Z</time>
      </trkpt>
      <trkpt lat="45.28081" lon="6.12566">
        <ele>2481</ele>
        <time>2021-08-30T16:05:52Z</time>
      </trkpt>
      <trkpt lat="45.28025" lon="6.12613">
        <ele>2557</ele>
        <time>2021-08-30T16:07:19Z</time>
      </trkpt>
      <trkpt lat="45.27969" lon="6.12712">
        <ele>2635</ele>
        <time>2021-08-30T16:09:18Z</time>
      </trkpt>
      <trkpt lat="45.2791" lon="6.12853">
        <ele>2692</ele>
        <time>2021-08-30T16:11:52Z</time>
      </trkpt>
      <trkpt lat="45.27851" lon="6.12984">
        <ele>2741</ele>
        <time>2021-08-30T16:14:18Z</time>
      </trkpt>
      <trkpt lat="45.27802" lon="6.13143">
        <ele>2714</ele>
        <time>2021-08-30T16:17:01Z</time>
      </trkpt>
      <trkpt lat="45.27745" lon="6.13151">
        <ele>2685</ele>
        <time>2021-08-30T16:18:18Z</time>
      </trkpt>
      <trkpt lat="45.27678" lon="6.13135">
        <ele>2670</ele>
        <time>2021-08-30T16:19:48Z</time>
      </trkpt>
      <trkpt lat="45.27588" lon="6.12968">
        <ele>2612</ele>
        <time>2021-08-30T16:23:06Z</time>
      </trkpt>
      <trkpt lat="45.27446" lon="6.12736">
        <ele>2541</ele>
        <time>2021-08-30T16:27:55Z</time>
      </trkpt>
      <trkpt lat="45.27278" lon="6.12444">
        <ele>2390</ele>
        <time>2021-08-30T16:33:49Z</time>
      </trkpt>
      <trkpt lat="45.27087" lon="6.12013">
        <ele>2222</ele>
        <time>2021-08-30T16:41:47Z</time>
      </trkpt>
      <trkpt lat="45.26969" lon="6.11736">
        <ele>2085</ele>
        <time>2021-08-30T16:46:51Z</time>
      </trkpt>
      <trkpt lat="45.26906" lon="6.11697">
        <ele>2035</ele>
        <time>2021-08-30T16:48:23Z</time>
      </trkpt>
      <trkpt lat="45.26792" lon="6.1159">
        <ele>1943</ele>
        <time>2021-08-30T16:51:25Z</time>
      </trkpt>
      <trkpt lat="45.26699" lon="6.11467">
        <ele>1870</ele>
        <time>2021-08-30T16:54:15Z</time>
      </trkpt>
      <trkpt lat="45.26656" lon="6.11374">
        <ele>1835</ele>
        <time>2021-08-30T16:55:59Z</time>
      </trkpt>
      <trkpt lat="45.26611" lon="6.113">
        <ele>1801</ele>
        <time>2021-08-30T16:57:31Z</time>
      </trkpt>
      <trkpt lat="45.26568" lon="6.11287">
        <ele>1789</ele>
        <time>2021-08-30T16:58:30Z</time>
      </trkpt>
      <trkpt lat="45.2653" lon="6.11345">
        <ele>1792</ele>
        <time>2021-08-30T16:59:44Z</time>
      </trkpt>
      <trkpt lat="45.2648" lon="6.11407">
        <ele>1790</ele>
        <time>2021-08-30T17:01:13Z</time>
      </trkpt>
    </trkseg>
  </trk>
</gpx>